sensor_id;sensor_type;location;lat;lon;timestamp;P1;durP1;ratioP1;P2;durP2;ratioP2
31990;SDS011;18508;49.386;8.370;2022-07-03T00:00:39;5.22;;;2.42;;
31990;SDS011;18508;49.386;8.370;2022-07-03T00:03:07;3.55;;;2.38;;
31990;SDS011;18508;49.386;8.370;2022-07-03T00:05:35;5.30;;;2.42;;
31990;SDS011;18508;49.386;8.370;2022-07-03T00:08:03;5.93;;;2.35;;
31990;SDS011;18508;49.386;8.370;2022-07-03T00:10:33;3.10;;;2.28;;
31990;SDS011;18508;49.386;8.370;2022-07-03T00:13:02;5.63;;;2.47;;
31990;SDS011;18508;49.386;8.370;2022-07-03T00:15:30;3.88;;;2.50;;
31990;SDS011;18508;49.386;8.370;2022-07-03T00:17:58;7.72;;;2.40;;
31990;SDS011;18508;49.386;8.370;2022-07-03T00:20:26;6.35;;;2.13;;
31990;SDS011;18508;49.386;8.370;2022-07-03T00:22:57;4.65;;;2.33;;
31990;SDS011;18508;49.386;8.370;2022-07-03T00:25:33;3.83;;;2.20;;
31990;SDS011;18508;49.386;8.370;2022-07-03T00:28:01;3.45;;;2.25;;
31990;SDS011;18508;49.386;8.370;2022-07-03T00:30:29;4.60;;;2.10;;
31990;SDS011;18508;49.386;8.370;2022-07-03T00:32:57;6.97;;;2.55;;
31990;SDS011;18508;49.386;8.370;2022-07-03T00:35:26;7.50;;;2.67;;
31990;SDS011;18508;49.386;8.370;2022-07-03T00:37:56;7.13;;;2.60;;
31990;SDS011;18508;49.386;8.370;2022-07-03T00:40:24;4.45;;;2.65;;
31990;SDS011;18508;49.386;8.370;2022-07-03T00:42:53;4.38;;;2.33;;
31990;SDS011;18508;49.386;8.370;2022-07-03T00:45:22;4.32;;;2.25;;
31990;SDS011;18508;49.386;8.370;2022-07-03T00:47:54;3.95;;;2.28;;
31990;SDS011;18508;49.386;8.370;2022-07-03T00:50:24;5.65;;;2.40;;
31990;SDS011;18508;49.386;8.370;2022-07-03T00:53:02;4.32;;;2.47;;
31990;SDS011;18508;49.386;8.370;2022-07-03T00:55:30;3.67;;;2.45;;
31990;SDS011;18508;49.386;8.370;2022-07-03T00:58:01;4.72;;;2.88;;
31990;SDS011;18508;49.386;8.370;2022-07-03T01:00:29;3.88;;;2.45;;
31990;SDS011;18508;49.386;8.370;2022-07-03T01:02:59;4.72;;;2.70;;
31990;SDS011;18508;49.386;8.370;2022-07-03T01:05:33;10.45;;;3.05;;
31990;SDS011;18508;49.386;8.370;2022-07-03T01:10:41;3.83;;;2.60;;
31990;SDS011;18508;49.386;8.370;2022-07-03T01:13:35;4.88;;;2.60;;
31990;SDS011;18508;49.386;8.370;2022-07-03T01:16:12;4.20;;;3.00;;
31990;SDS011;18508;49.386;8.370;2022-07-03T01:18:49;5.28;;;2.40;;
31990;SDS011;18508;49.386;8.370;2022-07-03T01:21:41;3.00;;;2.50;;
31990;SDS011;18508;49.386;8.370;2022-07-03T01:27:13;5.72;;;2.85;;
31990;SDS011;18508;49.386;8.370;2022-07-03T01:29:47;8.93;;;3.60;;
31990;SDS011;18508;49.386;8.370;2022-07-03T01:32:20;5.80;;;3.50;;
31990;SDS011;18508;49.386;8.370;2022-07-03T01:34:53;5.90;;;3.00;;
31990;SDS011;18508;49.386;8.370;2022-07-03T01:37:23;4.95;;;3.22;;
31990;SDS011;18508;49.386;8.370;2022-07-03T01:39:55;5.68;;;3.30;;
31990;SDS011;18508;49.386;8.370;2022-07-03T01:42:26;7.43;;;3.30;;
31990;SDS011;18508;49.386;8.370;2022-07-03T01:44:56;7.05;;;3.03;;
31990;SDS011;18508;49.386;8.370;2022-07-03T01:47:26;4.75;;;3.28;;
31990;SDS011;18508;49.386;8.370;2022-07-03T01:49:55;5.03;;;2.83;;
31990;SDS011;18508;49.386;8.370;2022-07-03T01:52:25;4.47;;;2.70;;
31990;SDS011;18508;49.386;8.370;2022-07-03T01:55:13;3.85;;;3.05;;
31990;SDS011;18508;49.386;8.370;2022-07-03T01:57:43;5.55;;;2.80;;
31990;SDS011;18508;49.386;8.370;2022-07-03T02:00:14;6.50;;;3.10;;
31990;SDS011;18508;49.386;8.370;2022-07-03T02:02:46;6.68;;;3.17;;
31990;SDS011;18508;49.386;8.370;2022-07-03T02:05:33;5.07;;;3.10;;
31990;SDS011;18508;49.386;8.370;2022-07-03T02:08:08;3.88;;;3.33;;
31990;SDS011;18508;49.386;8.370;2022-07-03T02:10:57;4.82;;;2.95;;
31990;SDS011;18508;49.386;8.370;2022-07-03T02:13:52;5.43;;;3.03;;
31990;SDS011;18508;49.386;8.370;2022-07-03T02:16:25;5.40;;;3.42;;
31990;SDS011;18508;49.386;8.370;2022-07-03T02:18:57;7.50;;;4.05;;
31990;SDS011;18508;49.386;8.370;2022-07-03T02:21:30;4.53;;;3.35;;
31990;SDS011;18508;49.386;8.370;2022-07-03T02:24:03;7.53;;;4.53;;
31990;SDS011;18508;49.386;8.370;2022-07-03T02:26:46;8.52;;;4.57;;
31990;SDS011;18508;49.386;8.370;2022-07-03T02:29:26;10.18;;;4.78;;
31990;SDS011;18508;49.386;8.370;2022-07-03T02:31:59;11.73;;;4.78;;
31990;SDS011;18508;49.386;8.370;2022-07-03T02:34:30;10.38;;;4.20;;
31990;SDS011;18508;49.386;8.370;2022-07-03T02:37:03;7.88;;;4.55;;
31990;SDS011;18508;49.386;8.370;2022-07-03T02:39:57;12.35;;;4.88;;
31990;SDS011;18508;49.386;8.370;2022-07-03T02:42:32;6.75;;;4.55;;
31990;SDS011;18508;49.386;8.370;2022-07-03T02:45:08;11.45;;;4.80;;
31990;SDS011;18508;49.386;8.370;2022-07-03T02:47:43;7.25;;;4.70;;
31990;SDS011;18508;49.386;8.370;2022-07-03T02:50:16;18.23;;;6.07;;
31990;SDS011;18508;49.386;8.370;2022-07-03T02:52:58;8.93;;;4.80;;
31990;SDS011;18508;49.386;8.370;2022-07-03T02:55:40;13.38;;;5.85;;
31990;SDS011;18508;49.386;8.370;2022-07-03T02:58:27;10.63;;;5.20;;
31990;SDS011;18508;49.386;8.370;2022-07-03T03:01:08;8.75;;;5.00;;
31990;SDS011;18508;49.386;8.370;2022-07-03T03:03:43;7.63;;;4.78;;
31990;SDS011;18508;49.386;8.370;2022-07-03T03:06:20;7.93;;;4.70;;
31990;SDS011;18508;49.386;8.370;2022-07-03T03:08:49;7.88;;;5.07;;
31990;SDS011;18508;49.386;8.370;2022-07-03T03:11:22;5.55;;;4.53;;
31990;SDS011;18508;49.386;8.370;2022-07-03T03:13:55;6.07;;;4.60;;
31990;SDS011;18508;49.386;8.370;2022-07-03T03:16:25;7.15;;;4.60;;
31990;SDS011;18508;49.386;8.370;2022-07-03T03:18:54;9.48;;;4.70;;
31990;SDS011;18508;49.386;8.370;2022-07-03T03:21:23;6.93;;;4.50;;
31990;SDS011;18508;49.386;8.370;2022-07-03T03:23:53;7.25;;;4.35;;
31990;SDS011;18508;49.386;8.370;2022-07-03T03:26:21;6.57;;;4.32;;
31990;SDS011;18508;49.386;8.370;2022-07-03T03:28:51;5.18;;;4.10;;
31990;SDS011;18508;49.386;8.370;2022-07-03T03:31:20;7.55;;;4.00;;
31990;SDS011;18508;49.386;8.370;2022-07-03T03:33:50;5.55;;;3.92;;
31990;SDS011;18508;49.386;8.370;2022-07-03T03:36:19;7.68;;;3.80;;
31990;SDS011;18508;49.386;8.370;2022-07-03T03:38:47;6.80;;;3.75;;
31990;SDS011;18508;49.386;8.370;2022-07-03T03:41:16;5.07;;;3.67;;
31990;SDS011;18508;49.386;8.370;2022-07-03T03:43:45;5.10;;;3.60;;
31990;SDS011;18508;49.386;8.370;2022-07-03T03:46:13;6.15;;;3.83;;
31990;SDS011;18508;49.386;8.370;2022-07-03T03:48:41;6.32;;;4.30;;
31990;SDS011;18508;49.386;8.370;2022-07-03T03:51:12;6.57;;;3.88;;
31990;SDS011;18508;49.386;8.370;2022-07-03T03:53:40;7.53;;;3.65;;
31990;SDS011;18508;49.386;8.370;2022-07-03T03:56:11;6.68;;;3.50;;
31990;SDS011;18508;49.386;8.370;2022-07-03T03:58:41;6.35;;;4.10;;
31990;SDS011;18508;49.386;8.370;2022-07-03T04:01:10;5.72;;;3.53;;
31990;SDS011;18508;49.386;8.370;2022-07-03T04:03:39;6.10;;;3.67;;
31990;SDS011;18508;49.386;8.370;2022-07-03T04:06:08;4.70;;;3.63;;
31990;SDS011;18508;49.386;8.370;2022-07-03T04:08:38;4.95;;;3.67;;
31990;SDS011;18508;49.386;8.370;2022-07-03T04:11:05;6.28;;;3.45;;
31990;SDS011;18508;49.386;8.370;2022-07-03T04:13:34;7.22;;;4.13;;
31990;SDS011;18508;49.386;8.370;2022-07-03T04:16:02;7.72;;;4.07;;
31990;SDS011;18508;49.386;8.370;2022-07-03T04:18:30;6.00;;;3.95;;
31990;SDS011;18508;49.386;8.370;2022-07-03T04:20:58;7.22;;;3.80;;
31990;SDS011;18508;49.386;8.370;2022-07-03T04:23:27;7.82;;;3.72;;
31990;SDS011;18508;49.386;8.370;2022-07-03T04:26:01;5.75;;;3.90;;
31990;SDS011;18508;49.386;8.370;2022-07-03T04:28:30;5.25;;;3.80;;
31990;SDS011;18508;49.386;8.370;2022-07-03T04:30:58;4.65;;;3.25;;
31990;SDS011;18508;49.386;8.370;2022-07-03T04:33:26;5.22;;;3.33;;
31990;SDS011;18508;49.386;8.370;2022-07-03T04:35:54;4.38;;;3.70;;
31990;SDS011;18508;49.386;8.370;2022-07-03T04:38:22;4.45;;;3.70;;
31990;SDS011;18508;49.386;8.370;2022-07-03T04:40:50;4.85;;;3.80;;
31990;SDS011;18508;49.386;8.370;2022-07-03T04:43:20;5.63;;;3.67;;
31990;SDS011;18508;49.386;8.370;2022-07-03T04:45:48;5.50;;;3.25;;
31990;SDS011;18508;49.386;8.370;2022-07-03T04:48:16;4.57;;;3.28;;
31990;SDS011;18508;49.386;8.370;2022-07-03T04:50:44;6.18;;;3.35;;
31990;SDS011;18508;49.386;8.370;2022-07-03T04:53:12;5.93;;;3.70;;
31990;SDS011;18508;49.386;8.370;2022-07-03T04:55:40;5.55;;;3.00;;
31990;SDS011;18508;49.386;8.370;2022-07-03T04:58:08;6.47;;;3.25;;
31990;SDS011;18508;49.386;8.370;2022-07-03T05:00:37;4.35;;;3.20;;
31990;SDS011;18508;49.386;8.370;2022-07-03T05:03:10;5.65;;;3.20;;
31990;SDS011;18508;49.386;8.370;2022-07-03T05:05:38;5.60;;;3.00;;
31990;SDS011;18508;49.386;8.370;2022-07-03T05:08:06;4.22;;;2.90;;
31990;SDS011;18508;49.386;8.370;2022-07-03T05:10:34;4.78;;;3.13;;
31990;SDS011;18508;49.386;8.370;2022-07-03T05:13:03;5.03;;;2.97;;
31990;SDS011;18508;49.386;8.370;2022-07-03T05:15:31;3.83;;;2.92;;
31990;SDS011;18508;49.386;8.370;2022-07-03T05:18:01;4.20;;;3.08;;
31990;SDS011;18508;49.386;8.370;2022-07-03T05:20:29;4.70;;;2.80;;
31990;SDS011;18508;49.386;8.370;2022-07-03T05:22:58;3.78;;;2.65;;
31990;SDS011;18508;49.386;8.370;2022-07-03T05:25:28;3.13;;;2.53;;
31990;SDS011;18508;49.386;8.370;2022-07-03T05:27:58;4.03;;;2.63;;
31990;SDS011;18508;49.386;8.370;2022-07-03T05:30:27;6.57;;;2.63;;
31990;SDS011;18508;49.386;8.370;2022-07-03T05:32:55;4.00;;;2.53;;
31990;SDS011;18508;49.386;8.370;2022-07-03T05:35:25;3.08;;;2.22;;
31990;SDS011;18508;49.386;8.370;2022-07-03T05:37:53;6.38;;;2.30;;
31990;SDS011;18508;49.386;8.370;2022-07-03T05:40:21;3.75;;;2.05;;
31990;SDS011;18508;49.386;8.370;2022-07-03T05:42:49;3.33;;;2.28;;
31990;SDS011;18508;49.386;8.370;2022-07-03T05:45:18;3.63;;;2.50;;
31990;SDS011;18508;49.386;8.370;2022-07-03T05:47:47;5.45;;;2.65;;
31990;SDS011;18508;49.386;8.370;2022-07-03T05:50:16;4.40;;;2.20;;
31990;SDS011;18508;49.386;8.370;2022-07-03T05:52:46;4.15;;;2.30;;
31990;SDS011;18508;49.386;8.370;2022-07-03T05:55:14;5.30;;;2.30;;
31990;SDS011;18508;49.386;8.370;2022-07-03T05:57:42;3.80;;;2.15;;
31990;SDS011;18508;49.386;8.370;2022-07-03T06:00:11;2.80;;;1.88;;
31990;SDS011;18508;49.386;8.370;2022-07-03T06:02:39;2.95;;;1.90;;
31990;SDS011;18508;49.386;8.370;2022-07-03T06:05:08;3.33;;;1.80;;
31990;SDS011;18508;49.386;8.370;2022-07-03T06:07:36;4.72;;;2.05;;
31990;SDS011;18508;49.386;8.370;2022-07-03T06:10:06;3.55;;;1.90;;
31990;SDS011;18508;49.386;8.370;2022-07-03T06:12:34;2.38;;;1.88;;
31990;SDS011;18508;49.386;8.370;2022-07-03T06:15:03;3.28;;;1.70;;
31990;SDS011;18508;49.386;8.370;2022-07-03T06:17:33;5.15;;;1.80;;
31990;SDS011;18508;49.386;8.370;2022-07-03T06:20:01;3.17;;;1.63;;
31990;SDS011;18508;49.386;8.370;2022-07-03T06:22:30;2.95;;;1.70;;
31990;SDS011;18508;49.386;8.370;2022-07-03T06:24:58;4.07;;;1.83;;
31990;SDS011;18508;49.386;8.370;2022-07-03T06:27:28;2.20;;;1.67;;
31990;SDS011;18508;49.386;8.370;2022-07-03T06:29:56;2.47;;;1.42;;
31990;SDS011;18508;49.386;8.370;2022-07-03T06:32:24;2.88;;;1.88;;
31990;SDS011;18508;49.386;8.370;2022-07-03T06:34:53;2.38;;;1.40;;
31990;SDS011;18508;49.386;8.370;2022-07-03T06:37:21;3.60;;;1.80;;
31990;SDS011;18508;49.386;8.370;2022-07-03T06:39:49;2.65;;;1.67;;
31990;SDS011;18508;49.386;8.370;2022-07-03T06:42:18;2.05;;;1.50;;
31990;SDS011;18508;49.386;8.370;2022-07-03T06:44:47;4.30;;;1.40;;
31990;SDS011;18508;49.386;8.370;2022-07-03T06:47:18;3.38;;;1.65;;
31990;SDS011;18508;49.386;8.370;2022-07-03T06:49:46;2.35;;;1.77;;
31990;SDS011;18508;49.386;8.370;2022-07-03T06:52:14;3.15;;;1.48;;
31990;SDS011;18508;49.386;8.370;2022-07-03T06:54:42;2.38;;;1.50;;
31990;SDS011;18508;49.386;8.370;2022-07-03T06:57:10;2.60;;;1.30;;
31990;SDS011;18508;49.386;8.370;2022-07-03T06:59:39;2.47;;;1.38;;
31990;SDS011;18508;49.386;8.370;2022-07-03T07:02:10;4.72;;;1.73;;
31990;SDS011;18508;49.386;8.370;2022-07-03T07:04:38;2.20;;;1.30;;
31990;SDS011;18508;49.386;8.370;2022-07-03T07:07:06;2.03;;;1.45;;
31990;SDS011;18508;49.386;8.370;2022-07-03T07:09:34;3.38;;;1.67;;
31990;SDS011;18508;49.386;8.370;2022-07-03T07:12:03;1.95;;;1.20;;
31990;SDS011;18508;49.386;8.370;2022-07-03T07:14:31;3.13;;;1.67;;
31990;SDS011;18508;49.386;8.370;2022-07-03T07:16:59;3.25;;;1.52;;
31990;SDS011;18508;49.386;8.370;2022-07-03T07:19:29;3.00;;;1.75;;
31990;SDS011;18508;49.386;8.370;2022-07-03T07:21:57;2.55;;;1.45;;
31990;SDS011;18508;49.386;8.370;2022-07-03T07:24:27;2.03;;;1.23;;
31990;SDS011;18508;49.386;8.370;2022-07-03T07:26:55;3.15;;;1.42;;
31990;SDS011;18508;49.386;8.370;2022-07-03T07:29:23;6.05;;;1.83;;
31990;SDS011;18508;49.386;8.370;2022-07-03T07:31:51;2.50;;;1.70;;
31990;SDS011;18508;49.386;8.370;2022-07-03T07:34:19;3.50;;;1.42;;
31990;SDS011;18508;49.386;8.370;2022-07-03T07:36:49;6.85;;;1.65;;
31990;SDS011;18508;49.386;8.370;2022-07-03T07:39:17;3.30;;;1.73;;
31990;SDS011;18508;49.386;8.370;2022-07-03T07:41:45;2.28;;;1.70;;
31990;SDS011;18508;49.386;8.370;2022-07-03T07:44:13;7.05;;;1.70;;
31990;SDS011;18508;49.386;8.370;2022-07-03T07:46:45;3.70;;;1.70;;
31990;SDS011;18508;49.386;8.370;2022-07-03T07:49:13;3.50;;;1.52;;
31990;SDS011;18508;49.386;8.370;2022-07-03T07:51:41;2.75;;;1.67;;
31990;SDS011;18508;49.386;8.370;2022-07-03T07:54:11;4.20;;;1.77;;
31990;SDS011;18508;49.386;8.370;2022-07-03T07:56:39;2.90;;;1.75;;
31990;SDS011;18508;49.386;8.370;2022-07-03T07:59:07;6.88;;;1.67;;
31990;SDS011;18508;49.386;8.370;2022-07-03T08:01:36;3.40;;;1.50;;
31990;SDS011;18508;49.386;8.370;2022-07-03T08:04:21;3.28;;;1.50;;
31990;SDS011;18508;49.386;8.370;2022-07-03T08:07:07;4.03;;;1.70;;
31990;SDS011;18508;49.386;8.370;2022-07-03T08:09:36;3.05;;;1.20;;
31990;SDS011;18508;49.386;8.370;2022-07-03T08:12:05;3.65;;;1.85;;
31990;SDS011;18508;49.386;8.370;2022-07-03T08:14:33;3.10;;;1.42;;
31990;SDS011;18508;49.386;8.370;2022-07-03T08:17:01;3.28;;;1.45;;
31990;SDS011;18508;49.386;8.370;2022-07-03T08:19:29;3.30;;;1.70;;
31990;SDS011;18508;49.386;8.370;2022-07-03T08:21:57;4.13;;;1.52;;
31990;SDS011;18508;49.386;8.370;2022-07-03T08:24:26;2.65;;;1.67;;
31990;SDS011;18508;49.386;8.370;2022-07-03T08:26:55;2.75;;;1.60;;
31990;SDS011;18508;49.386;8.370;2022-07-03T08:29:25;2.10;;;1.20;;
31990;SDS011;18508;49.386;8.370;2022-07-03T08:32:01;5.80;;;1.45;;
31990;SDS011;18508;49.386;8.370;2022-07-03T08:34:29;4.70;;;1.60;;
31990;SDS011;18508;49.386;8.370;2022-07-03T08:36:57;3.40;;;1.40;;
31990;SDS011;18508;49.386;8.370;2022-07-03T08:39:25;3.10;;;1.40;;
31990;SDS011;18508;49.386;8.370;2022-07-03T08:41:53;2.72;;;1.17;;
31990;SDS011;18508;49.386;8.370;2022-07-03T08:44:23;3.00;;;1.35;;
31990;SDS011;18508;49.386;8.370;2022-07-03T08:46:52;5.47;;;1.73;;
31990;SDS011;18508;49.386;8.370;2022-07-03T08:49:22;3.15;;;1.50;;
31990;SDS011;18508;49.386;8.370;2022-07-03T08:51:52;2.85;;;1.50;;
31990;SDS011;18508;49.386;8.370;2022-07-03T08:54:22;2.10;;;1.45;;
31990;SDS011;18508;49.386;8.370;2022-07-03T08:56:50;1.75;;;1.30;;
31990;SDS011;18508;49.386;8.370;2022-07-03T08:59:21;2.50;;;1.15;;
31990;SDS011;18508;49.386;8.370;2022-07-03T09:01:52;2.75;;;1.30;;
31990;SDS011;18508;49.386;8.370;2022-07-03T09:04:20;2.05;;;1.20;;
31990;SDS011;18508;49.386;8.370;2022-07-03T09:06:49;3.20;;;1.27;;
31990;SDS011;18508;49.386;8.370;2022-07-03T09:09:22;2.97;;;1.35;;
31990;SDS011;18508;49.386;8.370;2022-07-03T09:11:50;3.17;;;1.38;;
31990;SDS011;18508;49.386;8.370;2022-07-03T09:14:20;3.33;;;1.30;;
31990;SDS011;18508;49.386;8.370;2022-07-03T09:16:48;4.32;;;1.35;;
31990;SDS011;18508;49.386;8.370;2022-07-03T09:19:21;3.70;;;1.40;;
31990;SDS011;18508;49.386;8.370;2022-07-03T09:22:20;2.70;;;1.20;;
31990;SDS011;18508;49.386;8.370;2022-07-03T09:24:49;4.40;;;1.45;;
31990;SDS011;18508;49.386;8.370;2022-07-03T09:27:19;3.45;;;1.30;;
31990;SDS011;18508;49.386;8.370;2022-07-03T09:29:57;2.25;;;1.23;;
31990;SDS011;18508;49.386;8.370;2022-07-03T09:32:30;3.40;;;1.25;;
31990;SDS011;18508;49.386;8.370;2022-07-03T09:35:15;3.08;;;1.30;;
31990;SDS011;18508;49.386;8.370;2022-07-03T09:37:48;2.63;;;1.23;;
31990;SDS011;18508;49.386;8.370;2022-07-03T09:40:17;1.52;;;0.98;;
31990;SDS011;18508;49.386;8.370;2022-07-03T09:45:51;2.38;;;1.15;;
31990;SDS011;18508;49.386;8.370;2022-07-03T09:48:22;4.03;;;1.10;;
31990;SDS011;18508;49.386;8.370;2022-07-03T09:51:15;3.35;;;0.90;;
31990;SDS011;18508;49.386;8.370;2022-07-03T09:53:47;1.90;;;1.17;;
31990;SDS011;18508;49.386;8.370;2022-07-03T09:56:22;2.45;;;1.10;;
31990;SDS011;18508;49.386;8.370;2022-07-03T09:59:01;2.22;;;0.93;;
31990;SDS011;18508;49.386;8.370;2022-07-03T10:01:38;2.72;;;0.88;;
31990;SDS011;18508;49.386;8.370;2022-07-03T10:04:08;3.10;;;1.00;;
31990;SDS011;18508;49.386;8.370;2022-07-03T10:06:48;2.95;;;1.10;;
31990;SDS011;18508;49.386;8.370;2022-07-03T10:09:21;2.47;;;0.98;;
31990;SDS011;18508;49.386;8.370;2022-07-03T10:11:50;1.70;;;1.02;;
31990;SDS011;18508;49.386;8.370;2022-07-03T10:14:19;1.77;;;0.90;;
31990;SDS011;18508;49.386;8.370;2022-07-03T10:16:51;3.05;;;1.10;;
31990;SDS011;18508;49.386;8.370;2022-07-03T10:19:19;3.47;;;1.08;;
31990;SDS011;18508;49.386;8.370;2022-07-03T10:21:49;2.38;;;0.90;;
31990;SDS011;18508;49.386;8.370;2022-07-03T10:24:21;2.35;;;0.90;;
31990;SDS011;18508;49.386;8.370;2022-07-03T10:26:50;2.17;;;0.80;;
31990;SDS011;18508;49.386;8.370;2022-07-03T10:29:20;1.83;;;1.10;;
31990;SDS011;18508;49.386;8.370;2022-07-03T10:31:55;1.75;;;1.00;;
31990;SDS011;18508;49.386;8.370;2022-07-03T10:34:25;3.45;;;1.00;;
31990;SDS011;18508;49.386;8.370;2022-07-03T10:36:56;0.63;;;0.60;;
31990;SDS011;18508;49.386;8.370;2022-07-03T10:39:32;1.67;;;0.70;;
31990;SDS011;18508;49.386;8.370;2022-07-03T10:42:05;3.03;;;0.80;;
31990;SDS011;18508;49.386;8.370;2022-07-03T10:45:05;1.73;;;0.80;;
31990;SDS011;18508;49.386;8.370;2022-07-03T10:47:38;1.83;;;0.82;;
31990;SDS011;18508;49.386;8.370;2022-07-03T10:50:08;2.85;;;0.98;;
31990;SDS011;18508;49.386;8.370;2022-07-03T10:52:37;1.73;;;1.02;;
31990;SDS011;18508;49.386;8.370;2022-07-03T10:55:06;3.42;;;0.80;;
31990;SDS011;18508;49.386;8.370;2022-07-03T10:57:35;0.90;;;0.60;;
31990;SDS011;18508;49.386;8.370;2022-07-03T11:00:04;2.28;;;1.05;;
31990;SDS011;18508;49.386;8.370;2022-07-03T11:02:42;1.35;;;0.70;;
31990;SDS011;18508;49.386;8.370;2022-07-03T11:05:12;4.75;;;0.80;;
31990;SDS011;18508;49.386;8.370;2022-07-03T11:10:38;3.58;;;1.10;;
31990;SDS011;18508;49.386;8.370;2022-07-03T11:13:12;2.15;;;0.82;;
31990;SDS011;18508;49.386;8.370;2022-07-03T11:15:48;1.10;;;0.60;;
31990;SDS011;18508;49.386;8.370;2022-07-03T11:29:41;1.67;;;1.10;;
31990;SDS011;18508;49.386;8.370;2022-07-03T11:38:06;3.45;;;0.60;;
31990;SDS011;18508;49.386;8.370;2022-07-03T11:40:34;2.78;;;1.10;;
31990;SDS011;18508;49.386;8.370;2022-07-03T11:43:06;2.00;;;0.80;;
31990;SDS011;18508;49.386;8.370;2022-07-03T11:45:34;2.65;;;0.90;;
31990;SDS011;18508;49.386;8.370;2022-07-03T11:48:06;2.25;;;0.82;;
31990;SDS011;18508;49.386;8.370;2022-07-03T11:50:36;1.40;;;0.88;;
31990;SDS011;18508;49.386;8.370;2022-07-03T11:53:19;1.83;;;0.82;;
31990;SDS011;18508;49.386;8.370;2022-07-03T11:55:52;1.20;;;0.80;;
31990;SDS011;18508;49.386;8.370;2022-07-03T11:58:22;4.18;;;0.90;;
31990;SDS011;18508;49.386;8.370;2022-07-03T12:00:52;3.42;;;0.82;;
31990;SDS011;18508;49.386;8.370;2022-07-03T12:03:21;2.55;;;1.00;;
31990;SDS011;18508;49.386;8.370;2022-07-03T12:05:53;1.40;;;0.80;;
31990;SDS011;18508;49.386;8.370;2022-07-03T12:08:26;3.33;;;1.05;;
31990;SDS011;18508;49.386;8.370;2022-07-03T12:10:56;1.20;;;0.68;;
31990;SDS011;18508;49.386;8.370;2022-07-03T12:13:26;1.98;;;1.00;;
31990;SDS011;18508;49.386;8.370;2022-07-03T12:16:06;0.95;;;0.60;;
31990;SDS011;18508;49.386;8.370;2022-07-03T12:18:45;2.75;;;0.80;;
31990;SDS011;18508;49.386;8.370;2022-07-03T12:21:15;2.67;;;0.90;;
31990;SDS011;18508;49.386;8.370;2022-07-03T12:23:45;1.38;;;0.88;;
31990;SDS011;18508;49.386;8.370;2022-07-03T12:26:26;1.30;;;0.80;;
31990;SDS011;18508;49.386;8.370;2022-07-03T12:28:56;1.50;;;0.70;;
31990;SDS011;18508;49.386;8.370;2022-07-03T12:31:25;0.98;;;0.70;;
31990;SDS011;18508;49.386;8.370;2022-07-03T12:33:55;2.75;;;0.68;;
31990;SDS011;18508;49.386;8.370;2022-07-03T12:36:23;1.75;;;1.00;;
31990;SDS011;18508;49.386;8.370;2022-07-03T12:38:53;1.42;;;0.60;;
31990;SDS011;18508;49.386;8.370;2022-07-03T12:41:22;4.63;;;0.77;;
31990;SDS011;18508;49.386;8.370;2022-07-03T12:43:52;3.45;;;0.60;;
31990;SDS011;18508;49.386;8.370;2022-07-03T12:46:21;1.15;;;0.70;;
31990;SDS011;18508;49.386;8.370;2022-07-03T12:48:51;1.48;;;0.70;;
31990;SDS011;18508;49.386;8.370;2022-07-03T12:51:38;1.58;;;0.40;;
31990;SDS011;18508;49.386;8.370;2022-07-03T12:54:10;5.63;;;0.77;;
31990;SDS011;18508;49.386;8.370;2022-07-03T12:56:39;2.08;;;0.80;;
31990;SDS011;18508;49.386;8.370;2022-07-03T13:01:59;3.25;;;0.70;;
31990;SDS011;18508;49.386;8.370;2022-07-03T13:04:29;0.98;;;0.60;;
31990;SDS011;18508;49.386;8.370;2022-07-03T13:07:02;3.15;;;0.80;;
31990;SDS011;18508;49.386;8.370;2022-07-03T13:09:34;2.10;;;1.45;;
31990;SDS011;18508;49.386;8.370;2022-07-03T13:12:03;1.85;;;1.00;;
31990;SDS011;18508;49.386;8.370;2022-07-03T13:14:31;2.25;;;0.60;;
31990;SDS011;18508;49.386;8.370;2022-07-03T13:17:00;1.13;;;0.50;;
31990;SDS011;18508;49.386;8.370;2022-07-03T13:19:28;2.33;;;0.70;;
31990;SDS011;18508;49.386;8.370;2022-07-03T13:21:57;2.15;;;0.85;;
31990;SDS011;18508;49.386;8.370;2022-07-03T13:24:25;2.35;;;0.77;;
31990;SDS011;18508;49.386;8.370;2022-07-03T13:26:55;1.08;;;0.60;;
31990;SDS011;18508;49.386;8.370;2022-07-03T13:29:25;0.93;;;0.57;;
31990;SDS011;18508;49.386;8.370;2022-07-03T13:31:53;2.10;;;0.80;;
31990;SDS011;18508;49.386;8.370;2022-07-03T13:34:22;3.17;;;0.60;;
31990;SDS011;18508;49.386;8.370;2022-07-03T13:36:50;1.52;;;0.70;;
31990;SDS011;18508;49.386;8.370;2022-07-03T13:39:18;2.70;;;1.02;;
31990;SDS011;18508;49.386;8.370;2022-07-03T13:41:47;1.17;;;0.60;;
31990;SDS011;18508;49.386;8.370;2022-07-03T13:44:16;2.78;;;0.80;;
31990;SDS011;18508;49.386;8.370;2022-07-03T13:46:45;3.38;;;0.60;;
31990;SDS011;18508;49.386;8.370;2022-07-03T13:49:17;1.10;;;0.50;;
31990;SDS011;18508;49.386;8.370;2022-07-03T13:51:45;1.30;;;0.70;;
31990;SDS011;18508;49.386;8.370;2022-07-03T13:54:14;1.85;;;0.70;;
31990;SDS011;18508;49.386;8.370;2022-07-03T13:56:43;3.67;;;1.30;;
31990;SDS011;18508;49.386;8.370;2022-07-03T13:59:11;4.30;;;1.70;;
31990;SDS011;18508;49.386;8.370;2022-07-03T14:01:40;2.65;;;0.90;;
31990;SDS011;18508;49.386;8.370;2022-07-03T14:04:09;3.90;;;0.60;;
31990;SDS011;18508;49.386;8.370;2022-07-03T14:06:37;2.38;;;0.65;;
31990;SDS011;18508;49.386;8.370;2022-07-03T14:09:05;3.28;;;0.80;;
31990;SDS011;18508;49.386;8.370;2022-07-03T14:11:33;3.47;;;1.00;;
31990;SDS011;18508;49.386;8.370;2022-07-03T14:14:01;1.13;;;0.60;;
31990;SDS011;18508;49.386;8.370;2022-07-03T14:16:29;1.73;;;0.70;;
31990;SDS011;18508;49.386;8.370;2022-07-03T14:18:58;2.00;;;0.65;;
31990;SDS011;18508;49.386;8.370;2022-07-03T14:23:57;3.97;;;1.08;;
31990;SDS011;18508;49.386;8.370;2022-07-03T14:26:25;2.35;;;0.40;;
31990;SDS011;18508;49.386;8.370;2022-07-03T14:29:11;1.30;;;0.70;;
31990;SDS011;18508;49.386;8.370;2022-07-03T14:31:56;0.77;;;0.50;;
31990;SDS011;18508;49.386;8.370;2022-07-03T14:34:44;0.95;;;0.50;;
31990;SDS011;18508;49.386;8.370;2022-07-03T14:37:17;2.35;;;0.70;;
31990;SDS011;18508;49.386;8.370;2022-07-03T14:39:45;1.55;;;0.68;;
31990;SDS011;18508;49.386;8.370;2022-07-03T14:42:13;1.83;;;0.60;;
31990;SDS011;18508;49.386;8.370;2022-07-03T14:44:42;2.05;;;0.90;;
31990;SDS011;18508;49.386;8.370;2022-07-03T14:47:11;4.53;;;0.80;;
31990;SDS011;18508;49.386;8.370;2022-07-03T14:49:40;3.05;;;0.50;;
31990;SDS011;18508;49.386;8.370;2022-07-03T14:52:10;1.90;;;0.68;;
31990;SDS011;18508;49.386;8.370;2022-07-03T14:54:38;3.97;;;1.10;;
31990;SDS011;18508;49.386;8.370;2022-07-03T14:57:12;1.08;;;0.70;;
31990;SDS011;18508;49.386;8.370;2022-07-03T15:00:02;1.02;;;0.50;;
31990;SDS011;18508;49.386;8.370;2022-07-03T15:02:33;1.52;;;0.60;;
31990;SDS011;18508;49.386;8.370;2022-07-03T15:05:09;2.40;;;0.70;;
31990;SDS011;18508;49.386;8.370;2022-07-03T15:07:40;1.88;;;0.98;;
31990;SDS011;18508;49.386;8.370;2022-07-03T15:10:10;1.95;;;0.65;;
31990;SDS011;18508;49.386;8.370;2022-07-03T15:12:42;3.30;;;1.20;;
31990;SDS011;18508;49.386;8.370;2022-07-03T15:15:13;6.65;;;1.17;;
31990;SDS011;18508;49.386;8.370;2022-07-03T15:17:42;3.28;;;0.77;;
31990;SDS011;18508;49.386;8.370;2022-07-03T15:20:12;1.17;;;0.70;;
31990;SDS011;18508;49.386;8.370;2022-07-03T15:22:43;1.60;;;0.60;;
31990;SDS011;18508;49.386;8.370;2022-07-03T15:25:13;2.50;;;0.70;;
31990;SDS011;18508;49.386;8.370;2022-07-03T15:27:45;1.70;;;0.50;;
31990;SDS011;18508;49.386;8.370;2022-07-03T15:30:17;1.95;;;0.68;;
31990;SDS011;18508;49.386;8.370;2022-07-03T15:32:50;1.85;;;0.90;;
31990;SDS011;18508;49.386;8.370;2022-07-03T15:35:19;1.65;;;0.50;;
31990;SDS011;18508;49.386;8.370;2022-07-03T15:37:59;3.53;;;0.70;;
31990;SDS011;18508;49.386;8.370;2022-07-03T15:40:34;3.55;;;0.68;;
31990;SDS011;18508;49.386;8.370;2022-07-03T15:43:12;1.27;;;0.73;;
31990;SDS011;18508;49.386;8.370;2022-07-03T15:45:54;3.90;;;0.77;;